createdAt,value
2022-11-24T00:00:06.763Z,33.78
2022-11-24T00:03:10.686Z,35.08
2022-11-24T00:06:15.956Z,37.42
2022-11-24T00:09:18.922Z,40.47
2022-11-24T00:12:23.112Z,37.25
2022-11-24T00:15:26.190Z,55.95
2022-11-24T00:18:29.707Z,56.83
2022-11-24T00:21:32.707Z,52.83
2022-11-24T00:24:36.013Z,57.30
2022-11-24T00:27:39.101Z,61.72
2022-11-24T00:30:42.318Z,43.63
2022-11-24T00:33:49.178Z,47.47
2022-11-24T00:36:52.540Z,100.07
2022-11-24T00:39:55.460Z,95.38
2022-11-24T00:42:58.744Z,39.10
2022-11-24T00:46:01.974Z,51.05
2022-11-24T00:49:05.689Z,47.55
2022-11-24T00:52:09.762Z,47.95
2022-11-24T00:55:12.982Z,47.00
2022-11-24T00:58:16.655Z,47.72
2022-11-24T01:01:26.444Z,49.17
2022-11-24T01:04:29.535Z,48.28
2022-11-24T01:07:33.621Z,51.78
2022-11-24T01:10:37.258Z,55.53
2022-11-24T01:13:41.426Z,54.15
2022-11-24T01:16:44.365Z,55.78
2022-11-24T01:19:49.318Z,54.97
2022-11-24T01:22:52.522Z,51.58
2022-11-24T01:25:55.694Z,44.33
2022-11-24T01:28:59.007Z,54.17
2022-11-24T01:32:02.288Z,56.40
2022-11-24T01:35:05.948Z,53.38
2022-11-24T01:38:09.446Z,55.78
2022-11-24T01:41:17.421Z,52.70
2022-11-24T01:44:29.090Z,57.10
2022-11-24T01:47:38.685Z,56.42
2022-11-24T01:50:42.983Z,53.17
2022-11-24T01:53:50.249Z,53.33
2022-11-24T01:56:55.201Z,56.28
2022-11-24T02:00:13.194Z,58.77
2022-11-24T02:03:18.747Z,53.20
2022-11-24T02:06:30.159Z,49.67
2022-11-24T02:09:39.615Z,59.90
2022-11-24T02:12:45.893Z,55.40
2022-11-24T02:15:49.025Z,55.35
2022-11-24T02:18:52.761Z,56.65
2022-11-24T02:21:55.732Z,55.08
2022-11-24T02:25:07.282Z,58.55
2022-11-24T02:28:13.789Z,54.25
2022-11-24T02:31:17.174Z,62.17
2022-11-24T02:34:20.729Z,55.90
2022-11-24T02:37:23.923Z,58.60
2022-11-24T02:40:28.423Z,58.13
2022-11-24T02:43:37.599Z,50.40
2022-11-24T02:46:40.607Z,62.72
2022-11-24T02:49:43.882Z,67.75
2022-11-24T02:52:46.736Z,67.65
2022-11-24T02:55:50.697Z,61.65
2022-11-24T02:58:53.634Z,64.62
2022-11-24T03:01:56.996Z,60.55
2022-11-24T03:05:00.546Z,60.42
2022-11-24T03:08:04.413Z,59.83
2022-11-24T03:11:07.384Z,71.28
2022-11-24T03:14:10.806Z,69.43
2022-11-24T03:17:13.717Z,59.08
2022-11-24T03:20:17.569Z,62.28
2022-11-24T03:23:20.515Z,68.62
2022-11-24T03:26:25.216Z,66.53
2022-11-24T03:29:28.344Z,64.80
2022-11-24T03:32:31.681Z,64.80
2022-11-24T03:35:34.627Z,69.85
2022-11-24T03:38:38.745Z,68.93
2022-11-24T03:41:41.678Z,65.57
2022-11-24T03:44:45.364Z,68.68
2022-11-24T03:47:51.872Z,72.90
2022-11-24T03:50:56.535Z,60.42
2022-11-24T03:53:59.472Z,71.87
2022-11-24T03:57:03.022Z,75.00
2022-11-24T04:00:07.025Z,67.53
2022-11-24T04:03:11.314Z,73.20
2022-11-24T04:06:14.368Z,76.03
2022-11-24T04:09:17.630Z,72.05
2022-11-24T04:12:38.979Z,70.07
2022-11-24T04:15:43.323Z,66.55
2022-11-24T04:18:46.216Z,74.57
2022-11-24T04:21:49.577Z,70.45
2022-11-24T04:24:52.508Z,69.97
2022-11-24T04:27:56.527Z,67.72
2022-11-24T04:31:03.607Z,66.00
2022-11-24T04:34:07.289Z,72.50
2022-11-24T04:37:10.502Z,72.45
2022-11-24T04:40:14.176Z,74.35
2022-11-24T04:43:18.927Z,68.50
2022-11-24T04:46:22.315Z,70.90
2022-11-24T04:49:25.379Z,61.55
2022-11-24T04:52:30.334Z,66.68
2022-11-24T04:55:33.193Z,71.32
2022-11-24T04:58:37.864Z,68.28
2022-11-24T05:01:43.690Z,74.78
2022-11-24T05:04:48.252Z,75.93
2022-11-24T05:07:52.911Z,64.50
2022-11-24T05:10:56.451Z,64.32
2022-11-24T05:13:59.655Z,64.62
2022-11-24T05:17:03.002Z,66.18
2022-11-24T05:20:07.074Z,63.15
2022-11-24T05:23:11.096Z,60.30
2022-11-24T05:26:13.992Z,68.75
2022-11-24T05:29:17.191Z,55.97
2022-11-24T05:32:20.633Z,61.75
2022-11-24T05:35:24.189Z,54.60
2022-11-24T05:38:27.073Z,66.90
2022-11-24T05:41:30.160Z,66.05
2022-11-24T05:44:33.163Z,61.72
2022-11-24T05:47:37.897Z,66.43
2022-11-24T05:50:40.851Z,63.58
2022-11-24T05:53:44.393Z,58.50
2022-11-24T05:56:47.904Z,58.85
2022-11-24T05:59:51.246Z,56.40
2022-11-24T06:02:54.277Z,59.38
2022-11-24T06:05:59.236Z,53.50
2022-11-24T06:09:02.724Z,58.97
2022-11-24T06:12:11.155Z,58.83
2022-11-24T06:15:15.347Z,56.85
2022-11-24T06:18:18.526Z,55.12
2022-11-24T06:21:21.207Z,54.25
2022-11-24T06:24:24.414Z,56.25
2022-11-24T06:27:27.852Z,58.53
2022-11-24T06:30:31.412Z,62.40
2022-11-24T06:33:35.645Z,64.10
2022-11-24T06:36:39.546Z,52.75
2022-11-24T06:39:42.864Z,49.92
2022-11-24T06:42:51.469Z,58.47
2022-11-24T06:45:54.411Z,58.63
2022-11-24T06:49:00.121Z,55.08
2022-11-24T06:55:07.126Z,59.63
2022-11-24T06:58:10.006Z,57.42
2022-11-24T07:01:32.406Z,51.83
2022-11-24T07:04:35.465Z,52.25
2022-11-24T07:07:39.631Z,64.32
2022-11-24T07:10:42.624Z,57.40
2022-11-24T07:13:46.645Z,56.70
2022-11-24T07:16:49.796Z,56.37
2022-11-24T07:19:53.079Z,57.42
2022-11-24T07:22:59.407Z,58.08
2022-11-24T07:26:06.949Z,66.50
2022-11-24T07:29:10.270Z,62.10
2022-11-24T07:32:13.500Z,60.50
2022-11-24T07:35:16.486Z,57.65
2022-11-24T07:38:20.750Z,62.90
2022-11-24T07:41:23.706Z,60.95
2022-11-24T07:44:28.114Z,57.53
2022-11-24T07:47:30.983Z,64.45
2022-11-24T07:50:34.113Z,62.03
2022-11-24T07:53:37.731Z,51.75
2022-11-24T07:56:40.649Z,50.55
2022-11-24T07:59:43.240Z,64.00
2022-11-24T08:02:46.183Z,55.72
2022-11-24T08:06:16.440Z,56.42
2022-11-24T08:09:17.925Z,46.88
2022-11-24T08:12:22.634Z,62.15
2022-11-24T08:15:25.451Z,58.97
2022-11-24T08:18:29.659Z,57.88
2022-11-24T08:21:32.719Z,57.20
2022-11-24T08:24:36.436Z,63.05
2022-11-24T08:27:40.320Z,57.58
2022-11-24T08:30:43.672Z,55.67
2022-11-24T08:33:47.077Z,60.33
2022-11-24T08:36:50.989Z,58.25
2022-11-24T08:39:53.692Z,61.50
2022-11-24T08:43:00.815Z,53.92
2022-11-24T08:46:14.517Z,53.17
2022-11-24T08:49:19.055Z,50.20
2022-11-24T08:52:22.031Z,54.20
2022-11-24T08:55:25.297Z,49.80
2022-11-24T08:58:45.013Z,52.30
2022-11-24T09:01:49.486Z,46.35
2022-11-24T09:04:52.607Z,55.65
2022-11-24T09:07:56.276Z,51.63
2022-11-24T09:11:00.729Z,53.33
2022-11-24T09:14:04.902Z,42.62
2022-11-24T09:17:08.025Z,58.28
2022-11-24T09:20:11.444Z,47.38
2022-11-24T09:23:14.821Z,46.95
2022-11-24T09:26:22.018Z,47.78
2022-11-24T09:29:25.444Z,36.72
2022-11-24T09:32:30.672Z,45.22
2022-11-24T09:35:37.261Z,51.40
2022-11-24T09:38:41.037Z,47.40
2022-11-24T09:42:11.888Z,42.13
2022-11-24T09:46:06.202Z,36.50
2022-11-24T09:49:22.076Z,42.88
2022-11-24T09:52:45.523Z,47.35
2022-11-24T09:55:58.226Z,42.42
2022-11-24T09:59:03.075Z,39.58
2022-11-24T10:02:11.956Z,45.08
2022-11-24T10:05:15.600Z,43.22
2022-11-24T10:08:27.451Z,41.42
2022-11-24T10:12:03.434Z,44.55
2022-11-24T10:18:52.542Z,38.25
2022-11-24T10:22:30.462Z,39.78
2022-11-24T10:25:42.847Z,38.47
2022-11-24T10:28:52.651Z,38.60
2022-11-24T10:31:56.977Z,37.80
2022-11-24T10:35:13.708Z,33.67
2022-11-24T10:38:31.481Z,42.60
2022-11-24T10:41:45.865Z,30.77
2022-11-24T10:45:02.186Z,30.45
2022-11-24T10:48:09.040Z,36.25
2022-11-24T10:51:30.488Z,37.40
2022-11-24T10:54:36.082Z,31.75
2022-11-24T10:57:40.858Z,32.80
2022-11-24T11:00:43.688Z,32.57
2022-11-24T11:03:51.921Z,29.33
2022-11-24T11:07:18.701Z,28.38
2022-11-24T11:10:25.440Z,29.67
2022-11-24T11:13:30.414Z,28.27
2022-11-24T11:16:42.696Z,27.65
2022-11-24T11:19:49.791Z,27.35
2022-11-24T11:22:53.963Z,29.30
2022-11-24T11:26:24.872Z,35.85
2022-11-24T11:36:21.435Z,25.58
2022-11-24T11:39:33.100Z,27.95
2022-11-24T11:43:02.051Z,28.02
2022-11-24T11:46:12.537Z,27.60
2022-11-24T11:49:15.925Z,26.92
2022-11-24T11:52:28.455Z,25.62
2022-11-24T11:55:45.220Z,26.70
2022-11-24T11:59:27.664Z,25.52
2022-11-24T12:02:53.038Z,26.33
2022-11-24T12:09:24.313Z,23.85
2022-11-24T12:12:49.220Z,24.83
2022-11-24T12:15:54.569Z,25.12
2022-11-24T12:19:39.832Z,25.50
2022-11-24T12:22:51.693Z,25.48
2022-11-24T12:26:20.507Z,24.65
2022-11-24T12:29:57.647Z,22.75
2022-11-24T12:33:08.052Z,32.42
2022-11-24T12:36:30.826Z,27.25
2022-11-24T12:39:36.959Z,25.12
2022-11-24T12:43:11.203Z,28.07
2022-11-24T12:46:56.537Z,30.85
2022-11-24T12:50:05.595Z,24.20
2022-11-24T12:53:19.295Z,22.58
2022-11-24T12:56:35.700Z,24.30
2022-11-24T12:59:57.235Z,24.55
2022-11-24T13:03:11.637Z,24.92
2022-11-24T13:06:23.532Z,31.17
2022-11-24T13:09:26.444Z,22.13
2022-11-24T13:12:29.616Z,27.30
2022-11-24T13:16:13.073Z,23.52
2022-11-24T13:19:27.011Z,20.92
2022-11-24T13:22:30.157Z,28.58
2022-11-24T13:25:35.199Z,24.30
2022-11-24T13:29:03.648Z,28.55
2022-11-24T13:32:12.233Z,25.85
2022-11-24T13:35:16.137Z,22.37
2022-11-24T13:38:51.385Z,16.95
2022-11-24T13:41:54.676Z,28.05
2022-11-24T13:45:00.048Z,23.62
2022-11-24T13:48:02.933Z,25.48
2022-11-24T13:51:14.387Z,25.62
2022-11-24T13:54:17.442Z,26.35
2022-11-24T13:57:39.584Z,23.02
2022-11-24T14:01:30.464Z,26.02
2022-11-24T14:04:36.115Z,24.60
2022-11-24T14:07:41.814Z,24.10
2022-11-24T14:10:46.031Z,21.33
2022-11-24T14:13:48.888Z,19.62
2022-11-24T14:17:17.091Z,25.02
2022-11-24T14:20:25.534Z,23.95
2022-11-24T14:23:30.027Z,31.23
2022-11-24T14:26:35.677Z,24.00
2022-11-24T14:29:54.211Z,16.80
2022-11-24T14:32:58.914Z,21.48
2022-11-24T14:36:02.423Z,27.50
2022-11-24T14:39:06.093Z,22.25
2022-11-24T14:42:21.263Z,19.40
2022-11-24T14:45:24.450Z,26.87
2022-11-24T14:48:32.740Z,25.83
2022-11-24T14:51:43.384Z,31.02
2022-11-24T14:55:03.953Z,24.20
2022-11-24T14:58:42.358Z,27.45
2022-11-24T15:01:45.887Z,35.13
2022-11-24T15:05:06.858Z,30.37
2022-11-24T15:08:13.255Z,28.02
2022-11-24T15:11:16.254Z,28.50
2022-11-24T15:14:43.528Z,35.40
2022-11-24T15:17:51.811Z,28.65
2022-11-24T15:20:55.195Z,26.50
2022-11-24T15:24:18.130Z,24.23
2022-11-24T15:27:21.296Z,30.58
2022-11-24T15:30:27.679Z,26.48
2022-11-24T15:33:31.131Z,26.83
2022-11-24T15:36:34.101Z,27.42
2022-11-24T15:39:37.397Z,26.45
2022-11-24T15:42:40.721Z,31.30
2022-11-24T15:45:44.071Z,25.62
2022-11-24T15:48:47.346Z,35.58
2022-11-24T15:51:50.583Z,31.35
2022-11-24T15:54:54.695Z,26.60
2022-11-24T15:57:57.907Z,29.55
2022-11-24T16:01:01.395Z,33.20
2022-11-24T16:04:07.828Z,26.37
2022-11-24T16:07:14.203Z,27.23
2022-11-24T16:10:26.134Z,29.27
2022-11-24T16:13:29.156Z,33.00
2022-11-24T16:16:32.671Z,30.30
2022-11-24T16:19:40.313Z,33.15
2022-11-24T16:22:45.584Z,29.67
2022-11-24T16:25:48.462Z,27.85
2022-11-24T16:28:51.996Z,30.90
2022-11-24T16:31:55.133Z,32.13
2022-11-24T16:34:59.213Z,27.33
2022-11-24T16:38:04.629Z,29.08
2022-11-24T16:41:10.620Z,27.08
2022-11-24T16:44:13.478Z,28.65
2022-11-24T16:47:17.061Z,30.50
2022-11-24T16:50:19.798Z,34.50
2022-11-24T16:53:23.435Z,29.25
2022-11-24T16:56:27.303Z,32.63
2022-11-24T16:59:30.478Z,30.20
2022-11-24T17:02:37.593Z,42.97
2022-11-24T17:05:41.038Z,31.25
2022-11-24T17:08:45.436Z,30.48
2022-11-24T17:11:48.383Z,31.63
2022-11-24T17:15:16.487Z,27.95
2022-11-24T17:18:24.545Z,26.45
2022-11-24T17:21:28.880Z,26.67
2022-11-24T17:24:33.845Z,28.98
2022-11-24T17:27:38.664Z,26.90
2022-11-24T17:30:42.551Z,25.77
2022-11-24T17:33:46.232Z,27.08
2022-11-24T17:40:20.284Z,30.25
2022-11-24T17:43:20.878Z,39.92
2022-11-24T17:46:28.208Z,38.83
2022-11-24T17:49:32.218Z,31.42
2022-11-24T17:52:35.155Z,28.20
2022-11-24T17:55:38.850Z,31.70
2022-11-24T17:58:43.291Z,29.58
2022-11-24T18:01:47.505Z,28.87
2022-11-24T18:04:51.312Z,25.55
2022-11-24T18:08:07.314Z,29.83
2022-11-24T18:11:14.863Z,29.27
2022-11-24T18:14:18.260Z,29.70
2022-11-24T18:17:21.909Z,27.70
2022-11-24T18:20:27.057Z,27.30
2022-11-24T18:23:31.959Z,26.40
2022-11-24T18:26:35.593Z,27.87
2022-11-24T18:29:39.475Z,26.25
2022-11-24T18:32:42.754Z,30.55
2022-11-24T18:36:04.613Z,26.05
2022-11-24T18:39:09.286Z,27.58
2022-11-24T18:42:12.760Z,27.10
2022-11-24T18:45:15.549Z,24.42
2022-11-24T18:48:19.676Z,30.20
2022-11-24T18:51:24.032Z,26.87
2022-11-24T18:54:28.340Z,24.65
2022-11-24T18:57:32.254Z,25.12
2022-11-24T19:00:36.066Z,23.83
2022-11-24T19:03:48.731Z,21.92
2022-11-24T19:06:53.193Z,24.45
2022-11-24T19:09:56.617Z,33.53
2022-11-24T19:13:00.294Z,29.83
2022-11-24T19:16:11.425Z,27.20
2022-11-24T19:19:15.204Z,22.42
2022-11-24T19:22:18.976Z,27.10
2022-11-24T19:25:22.864Z,28.52
2022-11-24T19:28:26.421Z,29.35
2022-11-24T19:31:30.184Z,31.73
2022-11-24T19:34:33.945Z,23.48
2022-11-24T19:37:37.589Z,26.42
2022-11-24T19:40:41.010Z,26.15
2022-11-24T19:43:47.073Z,27.17
2022-11-24T19:49:56.885Z,24.98
2022-11-24T19:53:03.112Z,24.73
2022-11-24T19:56:19.158Z,27.27
2022-11-24T19:59:24.543Z,28.90
2022-11-24T20:02:29.964Z,27.80
2022-11-24T20:08:37.542Z,24.70
2022-11-24T20:11:41.824Z,23.80
2022-11-24T20:14:44.836Z,29.98
2022-11-24T20:17:49.329Z,25.35
2022-11-24T20:20:56.542Z,24.67
2022-11-24T20:24:09.051Z,26.33
2022-11-24T20:27:13.684Z,24.75
2022-11-24T20:30:17.334Z,23.08
2022-11-24T20:33:21.297Z,35.38
2022-11-24T20:36:30.248Z,29.02
2022-11-24T20:39:33.702Z,33.00
2022-11-24T20:42:38.018Z,27.55
2022-11-24T20:45:41.530Z,25.98
2022-11-24T20:48:46.797Z,31.53
2022-11-24T20:51:50.563Z,24.52
2022-11-24T20:54:55.459Z,27.48
2022-11-24T20:57:58.815Z,29.40
2022-11-24T21:01:19.207Z,24.08
2022-11-24T21:04:24.449Z,23.15
2022-11-24T21:07:27.710Z,28.40
2022-11-24T21:10:30.848Z,30.23
2022-11-24T21:13:35.867Z,29.73
2022-11-24T21:16:41.027Z,23.45
2022-11-24T21:19:44.390Z,22.00
2022-11-24T21:22:47.293Z,23.17
2022-11-24T21:25:51.431Z,28.75
2022-11-24T21:28:54.508Z,24.20
2022-11-24T21:31:58.662Z,25.88
2022-11-24T21:35:03.702Z,23.08
2022-11-24T21:38:08.307Z,26.92
2022-11-24T21:41:12.129Z,24.10
2022-11-24T21:44:15.471Z,23.42
2022-11-24T21:47:18.352Z,22.42
2022-11-24T21:50:21.897Z,23.65
2022-11-24T21:53:25.328Z,21.55
2022-11-24T21:56:28.773Z,21.37
2022-11-24T21:59:31.662Z,21.25
2022-11-24T22:02:34.836Z,20.17
2022-11-24T22:05:38.052Z,24.60
2022-11-24T22:08:41.346Z,24.90
2022-11-24T22:11:44.908Z,24.67
2022-11-24T22:14:47.791Z,23.85
2022-11-24T22:17:52.145Z,23.67
2022-11-24T22:20:56.268Z,22.37
2022-11-24T22:24:00.392Z,26.30
2022-11-24T22:27:03.455Z,28.58
2022-11-24T22:30:07.769Z,23.65
2022-11-24T22:33:10.638Z,23.52
2022-11-24T22:36:14.865Z,23.80
2022-11-24T22:39:18.038Z,25.15
2022-11-24T22:42:21.552Z,22.48
2022-11-24T22:45:24.703Z,26.05
2022-11-24T22:48:27.893Z,25.75
2022-11-24T22:51:33.195Z,24.42
2022-11-24T22:54:36.971Z,27.62
2022-11-24T22:57:41.446Z,24.17
2022-11-24T23:00:46.101Z,24.92
2022-11-24T23:03:50.530Z,23.85
2022-11-24T23:06:55.298Z,20.77
2022-11-24T23:09:58.248Z,21.85
2022-11-24T23:13:02.363Z,22.52
2022-11-24T23:16:16.045Z,23.62
2022-11-24T23:19:19.693Z,22.25
2022-11-24T23:22:23.483Z,23.23
2022-11-24T23:25:28.529Z,22.45
2022-11-24T23:28:31.479Z,21.90
2022-11-24T23:31:40.142Z,23.30
2022-11-24T23:34:43.267Z,21.42
2022-11-24T23:38:07.171Z,21.10
2022-11-24T23:41:12.948Z,23.48
2022-11-24T23:44:16.152Z,22.67
2022-11-24T23:47:18.919Z,27.00
2022-11-24T23:50:22.105Z,23.80
2022-11-24T23:53:24.952Z,25.15
2022-11-24T23:56:32.666Z,29.35
2022-11-24T23:59:36.031Z,26.08
